Circleville, Ohio
Current Conditions -  °F | °C
As of 12:54 PM on Friday 21 Nov 2014 (Local Time) from KRZT Reporting Station
Clear Clear  
Wind Chill: 28°   Ceiling: Unl
Heat Index: 28°   Visibility: 10mi
Dew Point: 12°   Wind: 3mph
Humidity: 51%   Direction: 30°NNE
Pressure: 30.52"   Gusts: NA
Location:  39.6°N, 82.94°W
Report Text: KRZT 211754Z AUTO 03003KT 10SM CLR M02/M11 A3052 RMK AO2
Loading
Personal Weather Stations






























Interactive Weather Map New forecast layout! Learn more

10-Day Weather Forecast

Advertisements
Track Severe Weather on mobile